sensor_id;sensor_type;location;lat;lon;timestamp;pressure;altitude;pressure_sealevel;temperature;humidity
49102;BME280;34913;47.520;19.186;2022-09-01T00:01:42;99910.13;;;18.77;73.77
49102;BME280;34913;47.520;19.186;2022-09-01T00:04:10;99911.81;;;18.78;73.89
49102;BME280;34913;47.520;19.186;2022-09-01T00:06:37;99902.81;;;18.62;72.84
49102;BME280;34913;47.520;19.186;2022-09-01T00:09:08;99894.91;;;18.46;74.55
49102;BME280;34913;47.520;19.186;2022-09-01T00:11:34;99900.59;;;18.28;74.45
49102;BME280;34913;47.520;19.186;2022-09-01T00:14:00;99902.66;;;18.18;75.69
49102;BME280;34913;47.520;19.186;2022-09-01T00:16:27;99904.22;;;18.12;76.15
49102;BME280;34913;47.520;19.186;2022-09-01T00:18:53;99903.06;;;18.07;76.84
49102;BME280;34913;47.520;19.186;2022-09-01T00:21:24;99906.72;;;18.14;78.11
49102;BME280;34913;47.520;19.186;2022-09-01T00:23:50;99906.75;;;18.06;78.93
49102;BME280;34913;47.520;19.186;2022-09-01T00:26:15;99909.69;;;17.96;80.32
49102;BME280;34913;47.520;19.186;2022-09-01T00:28:41;99903.75;;;18.01;81.25
49102;BME280;34913;47.520;19.186;2022-09-01T00:31:07;99897.66;;;17.84;82.32
49102;BME280;34913;47.520;19.186;2022-09-01T00:33:34;99912.31;;;17.73;83.35
49102;BME280;34913;47.520;19.186;2022-09-01T00:36:00;99919.03;;;17.77;84.51
49102;BME280;34913;47.520;19.186;2022-09-01T00:38:26;99925.22;;;17.70;85.61
49102;BME280;34913;47.520;19.186;2022-09-01T00:40:52;99924.03;;;17.80;84.14
49102;BME280;34913;47.520;19.186;2022-09-01T00:43:41;99931.94;;;17.74;85.30
49102;BME280;34913;47.520;19.186;2022-09-01T00:46:13;99931.47;;;17.62;86.31
49102;BME280;34913;47.520;19.186;2022-09-01T00:48:39;99939.34;;;17.64;85.85
49102;BME280;34913;47.520;19.186;2022-09-01T00:51:06;99943.91;;;17.55;87.42
49102;BME280;34913;47.520;19.186;2022-09-01T00:53:33;99942.75;;;17.49;86.70
49102;BME280;34913;47.520;19.186;2022-09-01T00:56:00;99956.50;;;17.46;87.20
49102;BME280;34913;47.520;19.186;2022-09-01T00:58:26;99959.22;;;17.38;87.85
49102;BME280;34913;47.520;19.186;2022-09-01T01:00:53;99960.19;;;17.37;91.16
49102;BME280;34913;47.520;19.186;2022-09-01T01:03:19;99962.56;;;17.32;89.94
49102;BME280;34913;47.520;19.186;2022-09-01T01:05:55;99964.94;;;17.27;89.92
49102;BME280;34913;47.520;19.186;2022-09-01T01:08:32;99959.06;;;17.23;90.99
49102;BME280;34913;47.520;19.186;2022-09-01T01:11:03;99962.78;;;17.22;91.56
49102;BME280;34913;47.520;19.186;2022-09-01T01:13:30;99961.44;;;17.10;87.89
49102;BME280;34913;47.520;19.186;2022-09-01T01:16:01;99960.25;;;17.13;90.45
49102;BME280;34913;47.520;19.186;2022-09-01T01:18:28;99959.09;;;17.07;89.74
49102;BME280;34913;47.520;19.186;2022-09-01T01:21:02;99957.94;;;16.93;90.42
49102;BME280;34913;47.520;19.186;2022-09-01T01:23:56;99954.06;;;16.96;90.34
49102;BME280;34913;47.520;19.186;2022-09-01T01:26:26;99961.44;;;17.02;90.90
49102;BME280;34913;47.520;19.186;2022-09-01T01:28:52;99960.44;;;16.95;90.23
49102;BME280;34913;47.520;19.186;2022-09-01T01:31:19;99956.56;;;16.89;88.15
49102;BME280;34913;47.520;19.186;2022-09-01T01:33:52;99959.13;;;16.91;90.75
49102;BME280;34913;47.520;19.186;2022-09-01T01:36:29;99965.97;;;16.93;91.28
49102;BME280;34913;47.520;19.186;2022-09-01T01:38:59;99963.97;;;16.87;88.29
49102;BME280;34913;47.520;19.186;2022-09-01T01:41:30;99961.44;;;16.86;90.55
49102;BME280;34913;47.520;19.186;2022-09-01T01:43:58;99951.56;;;16.78;91.06
49102;BME280;34913;47.520;19.186;2022-09-01T01:46:25;99953.91;;;16.73;91.27
49102;BME280;34913;47.520;19.186;2022-09-01T01:48:51;99958.25;;;16.74;91.71
49102;BME280;34913;47.520;19.186;2022-09-01T01:51:19;99960.63;;;16.77;93.52
49102;BME280;34913;47.520;19.186;2022-09-01T01:53:46;99962.47;;;16.77;94.40
49102;BME280;34913;47.520;19.186;2022-09-01T01:56:18;99959.63;;;16.78;93.45
49102;BME280;34913;47.520;19.186;2022-09-01T01:58:44;99973.50;;;16.73;92.01
49102;BME280;34913;47.520;19.186;2022-09-01T02:01:10;99965.16;;;16.77;93.88
49102;BME280;34913;47.520;19.186;2022-09-01T02:03:38;99961.28;;;16.87;93.41
49102;BME280;34913;47.520;19.186;2022-09-01T02:06:05;99956.09;;;16.69;91.75
49102;BME280;34913;47.520;19.186;2022-09-01T02:08:36;99949.16;;;16.59;91.46
49102;BME280;34913;47.520;19.186;2022-09-01T02:11:03;99949.69;;;16.54;91.25
49102;BME280;34913;47.520;19.186;2022-09-01T02:13:30;99952.03;;;16.57;91.69
49102;BME280;34913;47.520;19.186;2022-09-01T02:15:58;99940.66;;;16.55;92.74
49102;BME280;34913;47.520;19.186;2022-09-01T02:18:32;99941.81;;;16.61;91.86
49102;BME280;34913;47.520;19.186;2022-09-01T02:21:06;99944.81;;;16.58;92.66
49102;BME280;34913;47.520;19.186;2022-09-01T02:23:34;99929.44;;;16.43;92.37
49102;BME280;34913;47.520;19.186;2022-09-01T02:26:00;99924.06;;;16.52;93.25
49102;BME280;34913;47.520;19.186;2022-09-01T02:28:27;99923.91;;;16.45;91.48
49102;BME280;34913;47.520;19.186;2022-09-01T02:30:56;99915.50;;;16.48;94.57
49102;BME280;34913;47.520;19.186;2022-09-01T02:33:25;99920.22;;;16.54;94.62
49102;BME280;34913;47.520;19.186;2022-09-01T02:35:58;99926.59;;;16.53;95.06
49102;BME280;34913;47.520;19.186;2022-09-01T02:38:25;99914.84;;;16.46;94.29
49102;BME280;34913;47.520;19.186;2022-09-01T02:40:55;99918.53;;;16.45;94.94
49102;BME280;34913;47.520;19.186;2022-09-01T02:43:21;99913.69;;;16.57;94.25
49102;BME280;34913;47.520;19.186;2022-09-01T02:45:48;99917.19;;;16.41;92.92
49102;BME280;34913;47.520;19.186;2022-09-01T02:48:18;99913.00;;;16.38;94.10
49102;BME280;34913;47.520;19.186;2022-09-01T02:50:47;99909.31;;;16.39;92.89
49102;BME280;34913;47.520;19.186;2022-09-01T02:53:13;99904.94;;;16.22;93.20
49102;BME280;34913;47.520;19.186;2022-09-01T02:55:39;99897.94;;;16.21;93.99
49102;BME280;34913;47.520;19.186;2022-09-01T02:58:05;99895.06;;;16.14;93.47
49102;BME280;34913;47.520;19.186;2022-09-01T03:00:34;99888.88;;;16.14;93.01
49102;BME280;34913;47.520;19.186;2022-09-01T03:03:04;99891.72;;;16.04;92.79
49102;BME280;34913;47.520;19.186;2022-09-01T03:05:32;99895.06;;;16.06;94.07
49102;BME280;34913;47.520;19.186;2022-09-01T03:08:03;99889.69;;;15.98;92.41
49102;BME280;34913;47.520;19.186;2022-09-01T03:10:32;99895.69;;;15.92;93.51
49102;BME280;34913;47.520;19.186;2022-09-01T03:13:05;99904.53;;;15.93;93.57
49102;BME280;34913;47.520;19.186;2022-09-01T03:15:33;99895.03;;;15.90;93.41
49102;BME280;34913;47.520;19.186;2022-09-01T03:18:01;99892.34;;;15.90;93.27
49102;BME280;34913;47.520;19.186;2022-09-01T03:20:28;99890.00;;;16.03;92.86
49102;BME280;34913;47.520;19.186;2022-09-01T03:22:55;99889.03;;;16.12;93.11
49102;BME280;34913;47.520;19.186;2022-09-01T03:25:22;99886.69;;;16.09;91.87
49102;BME280;34913;47.520;19.186;2022-09-01T03:27:50;99885.19;;;16.15;91.22
49102;BME280;34913;47.520;19.186;2022-09-01T03:30:15;99891.84;;;16.11;92.77
49102;BME280;34913;47.520;19.186;2022-09-01T03:32:41;99882.66;;;16.05;91.50
49102;BME280;34913;47.520;19.186;2022-09-01T03:35:07;99873.94;;;16.03;91.80
49102;BME280;34913;47.520;19.186;2022-09-01T03:37:34;99876.28;;;15.98;91.93
49102;BME280;34913;47.520;19.186;2022-09-01T03:40:03;99884.63;;;15.95;91.64
49102;BME280;34913;47.520;19.186;2022-09-01T03:42:29;99881.63;;;15.90;91.12
49102;BME280;34913;47.520;19.186;2022-09-01T03:44:55;99889.81;;;15.80;91.41
49102;BME280;34913;47.520;19.186;2022-09-01T03:47:21;99892.50;;;15.88;92.10
49102;BME280;34913;47.520;19.186;2022-09-01T03:49:49;99895.84;;;15.82;92.42
49102;BME280;34913;47.520;19.186;2022-09-01T03:52:16;99895.66;;;15.84;93.34
49102;BME280;34913;47.520;19.186;2022-09-01T03:54:43;99900.53;;;15.88;93.81
49102;BME280;34913;47.520;19.186;2022-09-01T03:57:10;99901.16;;;15.74;93.59
49102;BME280;34913;47.520;19.186;2022-09-01T03:59:36;99909.22;;;15.82;95.13
49102;BME280;34913;47.520;19.186;2022-09-01T04:02:10;99918.75;;;15.85;94.39
49102;BME280;34913;47.520;19.186;2022-09-01T04:04:35;99909.38;;;15.81;93.14
49102;BME280;34913;47.520;19.186;2022-09-01T04:07:01;99907.69;;;15.80;93.47
49102;BME280;34913;47.520;19.186;2022-09-01T04:09:26;99906.47;;;15.66;93.46
49102;BME280;34913;47.520;19.186;2022-09-01T04:11:52;99909.09;;;15.58;93.64
49102;BME280;34913;47.520;19.186;2022-09-01T04:14:18;99907.09;;;15.60;93.87
49102;BME280;34913;47.520;19.186;2022-09-01T04:16:44;99910.78;;;15.59;94.56
49102;BME280;34913;47.520;19.186;2022-09-01T04:19:33;99898.78;;;15.71;93.29
49102;BME280;34913;47.520;19.186;2022-09-01T04:22:01;99904.47;;;15.68;91.95
49102;BME280;34913;47.520;19.186;2022-09-01T04:24:28;99899.88;;;15.52;91.63
49102;BME280;34913;47.520;19.186;2022-09-01T04:26:57;99889.94;;;15.36;93.35
49102;BME280;34913;47.520;19.186;2022-09-01T04:29:24;99893.94;;;15.32;93.21
49102;BME280;34913;47.520;19.186;2022-09-01T04:31:55;99895.91;;;15.30;94.08
49102;BME280;34913;47.520;19.186;2022-09-01T04:34:21;99900.75;;;15.27;93.26
49102;BME280;34913;47.520;19.186;2022-09-01T04:36:49;99902.81;;;15.33;94.96
49102;BME280;34913;47.520;19.186;2022-09-01T04:39:18;99902.81;;;15.33;94.84
49102;BME280;34913;47.520;19.186;2022-09-01T04:41:44;99895.94;;;15.39;95.34
49102;BME280;34913;47.520;19.186;2022-09-01T04:44:11;99894.63;;;15.34;96.07
49102;BME280;34913;47.520;19.186;2022-09-01T04:46:39;99889.44;;;15.33;96.20
49102;BME280;34913;47.520;19.186;2022-09-01T04:49:11;99883.25;;;15.32;96.53
49102;BME280;34913;47.520;19.186;2022-09-01T04:51:42;99893.94;;;15.32;97.24
49102;BME280;34913;47.520;19.186;2022-09-01T04:54:09;99889.78;;;15.38;98.28
49102;BME280;34913;47.520;19.186;2022-09-01T04:56:40;99883.63;;;15.46;99.51
49102;BME280;34913;47.520;19.186;2022-09-01T04:59:06;99886.16;;;15.55;98.99
49102;BME280;34913;47.520;19.186;2022-09-01T05:01:34;99891.88;;;15.60;98.43
49102;BME280;34913;47.520;19.186;2022-09-01T05:04:30;99893.72;;;15.60;97.50
49102;BME280;34913;47.520;19.186;2022-09-01T05:06:59;99895.69;;;15.50;98.14
49102;BME280;34913;47.520;19.186;2022-09-01T05:09:27;99875.59;;;15.46;99.16
49102;BME280;34913;47.520;19.186;2022-09-01T05:11:54;99894.00;;;15.49;98.24
49102;BME280;34913;47.520;19.186;2022-09-01T05:14:21;99889.59;;;15.40;98.82
49102;BME280;34913;47.520;19.186;2022-09-01T05:16:48;99891.66;;;15.46;100.00
49102;BME280;34913;47.520;19.186;2022-09-01T05:19:15;99883.97;;;15.51;100.00
49102;BME280;34913;47.520;19.186;2022-09-01T05:21:46;99886.53;;;15.60;100.00
49102;BME280;34913;47.520;19.186;2022-09-01T05:24:19;99890.91;;;15.61;99.57
49102;BME280;34913;47.520;19.186;2022-09-01T05:26:46;99886.53;;;15.60;98.74
49102;BME280;34913;47.520;19.186;2022-09-01T05:29:15;99895.16;;;15.46;96.43
49102;BME280;34913;47.520;19.186;2022-09-01T05:31:44;99891.25;;;15.67;97.20
49102;BME280;34913;47.520;19.186;2022-09-01T05:34:11;99896.72;;;15.57;96.33
49102;BME280;34913;47.520;19.186;2022-09-01T05:36:41;99889.84;;;15.54;97.93
49102;BME280;34913;47.520;19.186;2022-09-01T05:39:08;99892.34;;;15.56;97.32
49102;BME280;34913;47.520;19.186;2022-09-01T05:41:37;99902.91;;;15.57;97.61
49102;BME280;34913;47.520;19.186;2022-09-01T05:44:06;99898.41;;;15.58;98.10
49102;BME280;34913;47.520;19.186;2022-09-01T05:46:33;99901.34;;;15.47;99.62
49102;BME280;34913;47.520;19.186;2022-09-01T05:48:59;99899.38;;;15.49;98.11
49102;BME280;34913;47.520;19.186;2022-09-01T05:51:28;99901.72;;;15.52;98.26
49102;BME280;34913;47.520;19.186;2022-09-01T05:53:55;99895.47;;;15.43;97.56
49102;BME280;34913;47.520;19.186;2022-09-01T05:56:27;99901.66;;;15.44;98.45
49102;BME280;34913;47.520;19.186;2022-09-01T05:58:53;99903.81;;;15.40;98.07
49102;BME280;34913;47.520;19.186;2022-09-01T06:01:22;99904.19;;;15.45;97.20
49102;BME280;34913;47.520;19.186;2022-09-01T06:03:55;99909.06;;;15.50;98.10
49102;BME280;34913;47.520;19.186;2022-09-01T06:06:43;99910.91;;;15.49;98.82
49102;BME280;34913;47.520;19.186;2022-09-01T06:09:12;99909.41;;;15.55;97.80
49102;BME280;34913;47.520;19.186;2022-09-01T06:11:39;99907.56;;;15.55;97.57
49102;BME280;34913;47.520;19.186;2022-09-01T06:14:06;99912.25;;;15.53;96.11
49102;BME280;34913;47.520;19.186;2022-09-01T06:16:33;99914.91;;;15.53;96.73
49102;BME280;34913;47.520;19.186;2022-09-01T06:19:00;99923.28;;;15.50;96.56
49102;BME280;34913;47.520;19.186;2022-09-01T06:21:26;99933.13;;;15.50;96.76
49102;BME280;34913;47.520;19.186;2022-09-01T06:23:54;99923.94;;;15.52;97.69
49102;BME280;34913;47.520;19.186;2022-09-01T06:26:23;99911.94;;;15.56;97.71
49102;BME280;34913;47.520;19.186;2022-09-01T06:29:07;99920.03;;;15.65;99.06
49102;BME280;34913;47.520;19.186;2022-09-01T06:31:35;99920.03;;;15.65;97.31
49102;BME280;34913;47.520;19.186;2022-09-01T06:34:06;99913.00;;;15.72;96.47
49102;BME280;34913;47.520;19.186;2022-09-01T06:36:37;99921.09;;;15.54;93.98
49102;BME280;34913;47.520;19.186;2022-09-01T06:39:04;99919.03;;;15.40;94.47
49102;BME280;34913;47.520;19.186;2022-09-01T06:41:30;99912.16;;;15.37;96.67
49102;BME280;34913;47.520;19.186;2022-09-01T06:43:56;99924.28;;;15.49;97.24
49102;BME280;34913;47.520;19.186;2022-09-01T06:46:22;99920.81;;;15.57;97.14
49102;BME280;34913;47.520;19.186;2022-09-01T06:48:48;99925.38;;;15.65;96.81
49102;BME280;34913;47.520;19.186;2022-09-01T06:51:17;99920.38;;;15.70;97.80
49102;BME280;34913;47.520;19.186;2022-09-01T06:53:44;99927.59;;;15.77;98.38
49102;BME280;34913;47.520;19.186;2022-09-01T06:56:10;99928.13;;;15.81;97.43
49102;BME280;34913;47.520;19.186;2022-09-01T06:58:42;99932.97;;;15.85;97.48
49102;BME280;34913;47.520;19.186;2022-09-01T07:01:11;99930.25;;;15.77;96.35
49102;BME280;34913;47.520;19.186;2022-09-01T07:03:42;99930.59;;;15.74;96.71
49102;BME280;34913;47.520;19.186;2022-09-01T07:06:09;99939.28;;;15.76;97.37
49102;BME280;34913;47.520;19.186;2022-09-01T07:08:36;99935.13;;;15.82;97.90
49102;BME280;34913;47.520;19.186;2022-09-01T07:11:05;99933.50;;;15.89;98.27
49102;BME280;34913;47.520;19.186;2022-09-01T07:13:32;99938.53;;;16.00;98.96
49102;BME280;34913;47.520;19.186;2022-09-01T07:16:00;99947.09;;;16.04;98.01
49102;BME280;34913;47.520;19.186;2022-09-01T07:18:26;99944.25;;;16.05;96.81
49102;BME280;34913;47.520;19.186;2022-09-01T07:20:53;99942.88;;;16.01;97.37
49102;BME280;34913;47.520;19.186;2022-09-01T07:23:20;99940.06;;;16.11;96.67
49102;BME280;34913;47.520;19.186;2022-09-01T07:25:47;99952.59;;;16.10;96.88
49102;BME280;34913;47.520;19.186;2022-09-01T07:28:15;99954.44;;;16.10;97.24
49102;BME280;34913;47.520;19.186;2022-09-01T07:30:48;99950.47;;;16.22;97.01
49102;BME280;34913;47.520;19.186;2022-09-01T07:33:16;99954.34;;;16.28;97.35
49102;BME280;34913;47.520;19.186;2022-09-01T07:35:45;99948.66;;;16.31;97.54
49102;BME280;34913;47.520;19.186;2022-09-01T07:38:11;99943.47;;;16.29;97.84
49102;BME280;34913;47.520;19.186;2022-09-01T07:40:41;99948.00;;;16.37;95.26
49102;BME280;34913;47.520;19.186;2022-09-01T07:43:13;99944.13;;;16.31;95.57
49102;BME280;34913;47.520;19.186;2022-09-01T07:45:43;99951.69;;;16.36;95.32
49102;BME280;34913;47.520;19.186;2022-09-01T07:48:12;99951.00;;;16.42;97.28
49102;BME280;34913;47.520;19.186;2022-09-01T07:50:41;99951.53;;;16.45;96.84
49102;BME280;34913;47.520;19.186;2022-09-01T07:53:24;99956.53;;;16.57;96.68
49102;BME280;34913;47.520;19.186;2022-09-01T07:55:56;99952.19;;;16.64;96.00
49102;BME280;34913;47.520;19.186;2022-09-01T07:58:25;99961.59;;;16.60;92.91
49102;BME280;34913;47.520;19.186;2022-09-01T08:00:52;99965.47;;;16.73;95.41
49102;BME280;34913;47.520;19.186;2022-09-01T08:03:22;99965.97;;;16.77;93.35
49102;BME280;34913;47.520;19.186;2022-09-01T08:05:49;99966.63;;;16.79;92.73
49102;BME280;34913;47.520;19.186;2022-09-01T08:08:19;99965.81;;;16.70;92.49
49102;BME280;34913;47.520;19.186;2022-09-01T08:10:45;99960.75;;;16.59;92.85
49102;BME280;34913;47.520;19.186;2022-09-01T08:13:11;99957.94;;;16.69;93.93
49102;BME280;34913;47.520;19.186;2022-09-01T08:15:38;99967.31;;;16.81;93.69
49102;BME280;34913;47.520;19.186;2022-09-01T08:18:04;99964.97;;;16.86;91.46
49102;BME280;34913;47.520;19.186;2022-09-01T08:20:29;99959.44;;;16.88;90.57
49102;BME280;34913;47.520;19.186;2022-09-01T08:22:55;99961.94;;;16.89;90.92
49102;BME280;34913;47.520;19.186;2022-09-01T08:25:21;99958.44;;;16.89;90.92
49102;BME280;34913;47.520;19.186;2022-09-01T08:27:47;99948.41;;;16.91;89.92
49102;BME280;34913;47.520;19.186;2022-09-01T08:30:13;99960.94;;;16.90;88.33
49102;BME280;34913;47.520;19.186;2022-09-01T08:32:39;99959.13;;;16.99;90.16
49102;BME280;34913;47.520;19.186;2022-09-01T08:35:12;99966.81;;;17.02;89.25
49102;BME280;34913;47.520;19.186;2022-09-01T08:37:38;99968.81;;;17.00;87.28
49102;BME280;34913;47.520;19.186;2022-09-01T08:40:06;99959.94;;;16.99;89.48
49102;BME280;34913;47.520;19.186;2022-09-01T08:43:01;99958.75;;;17.10;91.64
49102;BME280;34913;47.520;19.186;2022-09-01T08:48:24;99973.00;;;16.94;87.72
49102;BME280;34913;47.520;19.186;2022-09-01T08:51:37;99964.13;;;16.86;87.38
49102;BME280;34913;47.520;19.186;2022-09-01T08:53:51;99963.47;;;16.76;89.99
49102;BME280;34913;47.520;19.186;2022-09-01T08:56:22;99963.31;;;16.77;90.58
49102;BME280;34913;47.520;19.186;2022-09-01T08:58:47;99959.78;;;16.85;85.96
49102;BME280;34913;47.520;19.186;2022-09-01T09:04:25;99958.28;;;16.98;88.64
49102;BME280;34913;47.520;19.186;2022-09-01T09:10:05;99964.28;;;17.17;85.99
49102;BME280;34913;47.520;19.186;2022-09-01T09:12:47;99958.19;;;17.47;88.23
49102;BME280;34913;47.520;19.186;2022-09-01T09:17:49;99947.78;;;17.92;85.92
49102;BME280;34913;47.520;19.186;2022-09-01T09:20:23;99951.44;;;17.99;79.72
49102;BME280;34913;47.520;19.186;2022-09-01T09:22:49;99947.78;;;17.92;81.20
49102;BME280;34913;47.520;19.186;2022-09-01T09:25:17;99947.47;;;17.95;82.33
49102;BME280;34913;47.520;19.186;2022-09-01T09:27:44;99949.59;;;17.99;79.74
49102;BME280;34913;47.520;19.186;2022-09-01T09:30:30;99944.22;;;17.99;80.39
49102;BME280;34913;47.520;19.186;2022-09-01T09:33:01;99944.06;;;18.01;79.06
49102;BME280;34913;47.520;19.186;2022-09-01T09:41:19;99953.34;;;18.21;81.01
49102;BME280;34913;47.520;19.186;2022-09-01T09:46:34;99943.81;;;18.19;80.49
49102;BME280;34913;47.520;19.186;2022-09-01T09:51:39;99935.13;;;18.08;79.63
49102;BME280;34913;47.520;19.186;2022-09-01T09:54:30;99927.69;;;18.19;80.73
49102;BME280;34913;47.520;19.186;2022-09-01T10:02:41;99918.66;;;18.65;78.06
49102;BME280;34913;47.520;19.186;2022-09-01T10:07:57;99923.94;;;18.74;75.74
49102;BME280;34913;47.520;19.186;2022-09-01T10:13:18;99920.13;;;18.68;72.11
49102;BME280;34913;47.520;19.186;2022-09-01T10:15:50;99923.31;;;18.63;75.24
49102;BME280;34913;47.520;19.186;2022-09-01T10:18:19;99920.88;;;18.77;75.01
49102;BME280;34913;47.520;19.186;2022-09-01T10:21:10;99920.28;;;18.89;72.32
49102;BME280;34913;47.520;19.186;2022-09-01T10:23:37;99917.03;;;18.94;68.19
49102;BME280;34913;47.520;19.186;2022-09-01T10:28:43;99912.00;;;19.29;66.87
49102;BME280;34913;47.520;19.186;2022-09-01T10:31:10;99919.13;;;19.36;65.56
49102;BME280;34913;47.520;19.186;2022-09-01T10:33:35;99909.31;;;19.43;65.05
49102;BME280;34913;47.520;19.186;2022-09-01T10:36:01;99908.81;;;19.55;64.64
49102;BME280;34913;47.520;19.186;2022-09-01T10:38:30;99915.72;;;19.57;65.08
49102;BME280;34913;47.520;19.186;2022-09-01T10:40:57;99910.03;;;19.52;61.85
49102;BME280;34913;47.520;19.186;2022-09-01T10:43:36;99912.66;;;19.60;64.26
49102;BME280;34913;47.520;19.186;2022-09-01T10:48:34;99908.72;;;19.48;58.56
49102;BME280;34913;47.520;19.186;2022-09-01T10:53:52;99904.25;;;19.55;61.61
49102;BME280;34913;47.520;19.186;2022-09-01T10:56:38;99916.34;;;19.74;59.17
49102;BME280;34913;47.520;19.186;2022-09-01T11:14:57;99906.97;;;20.63;51.58
49102;BME280;34913;47.520;19.186;2022-09-01T11:17:53;99898.00;;;20.84;51.46
49102;BME280;34913;47.520;19.186;2022-09-01T11:28:06;99899.69;;;21.13;47.52
49102;BME280;34913;47.520;19.186;2022-09-01T11:35:43;99898.44;;;21.44;47.71
49102;BME280;34913;47.520;19.186;2022-09-01T11:38:11;99898.94;;;21.26;47.97
49102;BME280;34913;47.520;19.186;2022-09-01T11:40:37;99891.03;;;21.25;45.87
49102;BME280;34913;47.520;19.186;2022-09-01T11:43:14;99898.19;;;21.39;48.57
49102;BME280;34913;47.520;19.186;2022-09-01T11:46:01;99887.53;;;21.59;44.47
49102;BME280;34913;47.520;19.186;2022-09-01T11:48:31;99883.66;;;21.88;46.05
49102;BME280;34913;47.520;19.186;2022-09-01T11:50:58;99880.75;;;21.83;44.00
49102;BME280;34913;47.520;19.186;2022-09-01T11:53:25;99879.94;;;21.82;46.68
49102;BME280;34913;47.520;19.186;2022-09-01T11:55:54;99876.66;;;22.07;45.46
49102;BME280;34913;47.520;19.186;2022-09-01T11:58:29;99877.88;;;21.91;44.27
49102;BME280;34913;47.520;19.186;2022-09-01T12:03:36;99889.31;;;21.93;42.83
49102;BME280;34913;47.520;19.186;2022-09-01T12:06:04;99874.56;;;22.02;42.13
49102;BME280;34913;47.520;19.186;2022-09-01T12:08:37;99874.84;;;22.14;46.42
49102;BME280;34913;47.520;19.186;2022-09-01T12:11:10;99870.28;;;22.27;46.56
49102;BME280;34913;47.520;19.186;2022-09-01T12:13:39;99879.22;;;22.35;43.45
49102;BME280;34913;47.520;19.186;2022-09-01T12:16:07;99869.28;;;22.28;41.76
49102;BME280;34913;47.520;19.186;2022-09-01T12:18:37;99876.78;;;22.53;43.52
49102;BME280;34913;47.520;19.186;2022-09-01T12:21:18;99873.03;;;22.54;42.32
49102;BME280;34913;47.520;19.186;2022-09-01T12:23:45;99864.50;;;22.57;43.55
49102;BME280;34913;47.520;19.186;2022-09-01T12:26:13;99861.16;;;22.62;47.22
49102;BME280;34913;47.520;19.186;2022-09-01T12:28:40;99864.72;;;22.75;44.03
49102;BME280;34913;47.520;19.186;2022-09-01T12:31:18;99873.44;;;23.04;43.50
49102;BME280;34913;47.520;19.186;2022-09-01T12:33:46;99869.47;;;23.06;41.34
49102;BME280;34913;47.520;19.186;2022-09-01T12:38:47;99875.94;;;23.12;45.53
49102;BME280;34913;47.520;19.186;2022-09-01T12:41:32;99866.16;;;23.11;43.44
49102;BME280;34913;47.520;19.186;2022-09-01T12:47:11;99861.31;;;23.33;42.64
49102;BME280;34913;47.520;19.186;2022-09-01T12:49:45;99859.88;;;23.24;41.61
49102;BME280;34913;47.520;19.186;2022-09-01T12:57:36;99851.66;;;23.50;41.62
49102;BME280;34913;47.520;19.186;2022-09-01T13:00:08;99858.19;;;23.87;41.32
49102;BME280;34913;47.520;19.186;2022-09-01T13:02:50;99860.69;;;23.89;37.97
49102;BME280;34913;47.520;19.186;2022-09-01T13:05:29;99855.47;;;23.94;40.62
49102;BME280;34913;47.520;19.186;2022-09-01T13:07:58;99854.97;;;24.04;39.59
49102;BME280;34913;47.520;19.186;2022-09-01T13:10:25;99861.28;;;23.91;39.92
49102;BME280;34913;47.520;19.186;2022-09-01T13:12:53;99856.34;;;23.81;37.76
49102;BME280;34913;47.520;19.186;2022-09-01T13:15:19;99856.88;;;23.45;39.26
49102;BME280;34913;47.520;19.186;2022-09-01T13:17:45;99860.38;;;23.52;39.72
49102;BME280;34913;47.520;19.186;2022-09-01T13:20:11;99851.28;;;23.40;39.64
49102;BME280;34913;47.520;19.186;2022-09-01T13:22:36;99860.66;;;23.37;41.37
49102;BME280;34913;47.520;19.186;2022-09-01T13:25:03;99849.44;;;23.21;41.11
49102;BME280;34913;47.520;19.186;2022-09-01T13:27:29;99849.03;;;23.24;43.36
49102;BME280;34913;47.520;19.186;2022-09-01T13:29:54;99856.97;;;23.05;39.54
49102;BME280;34913;47.520;19.186;2022-09-01T13:32:21;99855.31;;;23.04;39.34
49102;BME280;34913;47.520;19.186;2022-09-01T13:34:51;99868.47;;;22.94;38.58
49102;BME280;34913;47.520;19.186;2022-09-01T13:37:18;99860.75;;;22.98;40.39
49102;BME280;34913;47.520;19.186;2022-09-01T13:39:44;99852.00;;;22.89;39.82
49102;BME280;34913;47.520;19.186;2022-09-01T13:42:11;99868.91;;;22.91;40.09
49102;BME280;34913;47.520;19.186;2022-09-01T13:44:38;99861.38;;;22.93;40.61
49102;BME280;34913;47.520;19.186;2022-09-01T13:47:03;99867.19;;;22.97;40.60
49102;BME280;34913;47.520;19.186;2022-09-01T13:49:29;99870.56;;;22.86;38.76
49102;BME280;34913;47.520;19.186;2022-09-01T13:51:55;99861.16;;;22.95;40.50
49102;BME280;34913;47.520;19.186;2022-09-01T13:54:21;99861.16;;;22.95;39.37
49102;BME280;34913;47.520;19.186;2022-09-01T13:56:46;99860.75;;;22.98;38.47
49102;BME280;34913;47.520;19.186;2022-09-01T13:59:12;99848.03;;;23.05;40.30
49102;BME280;34913;47.520;19.186;2022-09-01T14:01:38;99856.59;;;23.02;38.49
49102;BME280;34913;47.520;19.186;2022-09-01T14:04:06;99854.50;;;22.97;39.61
49102;BME280;34913;47.520;19.186;2022-09-01T14:06:32;99861.78;;;22.97;41.07
49102;BME280;34913;47.520;19.186;2022-09-01T14:08:58;99857.63;;;22.88;39.81
49102;BME280;34913;47.520;19.186;2022-09-01T14:11:24;99865.16;;;22.92;41.26
49102;BME280;34913;47.520;19.186;2022-09-01T14:13:51;99862.00;;;22.95;41.40
49102;BME280;34913;47.520;19.186;2022-09-01T14:16:16;99868.03;;;22.71;37.99
49102;BME280;34913;47.520;19.186;2022-09-01T14:18:42;99867.63;;;22.67;38.41
49102;BME280;34913;47.520;19.186;2022-09-01T14:21:12;99865.53;;;22.63;38.01
49102;BME280;34913;47.520;19.186;2022-09-01T14:23:39;99864.91;;;22.61;39.92
49102;BME280;34913;47.520;19.186;2022-09-01T14:26:11;99857.00;;;22.52;40.33